Startpagina
METAR-TAF:

METAR-TAF

Vliegvelden :

Churchill, Manitoba, Canada

breedte: 58-44N, lengte: 094-04W, hoogte: 28 m

Actueel weer

Dit bericht is 53 minuten geleden gemaakt, om 20:00 UTC
Wind 14 kt uit het oostnoordoosten
Temperatuur 9°C
Vochtigheid 76%
Druk 1018 hPa
Zicht: 24.1 km
Weinig wolken op 2300 ft
Gebroken wolken op 26000 ft

METAR: CYYQ 282000Z 06014KT 15SM FEW023 BKN260 09/05 A3005 RMK CU2CI4 SLP180

Tijdstip: 15:53 (20:53 UTC)

Verwachting

Dit bericht is 47 minuten geleden gemaakt, om 20:06 UTC
Verwachting geldig van 28 om 20 UTC tot 29 om 18 UTC
Wind 12 kt uit het oostnoordoosten
Zicht: 10 km
Weinig wolken op 2000 ft
Weinig wolken op 26000 ft
Van 29 om 0200 UTC
Wind 12 kt uit het oosten
Zicht: 1.6 km
Geheel bewolkt op 500 ft
nevel
Van 29 om 1500 UTC
Wind 12 kt uit het oosten
Zicht: 10 km
Gebroken wolken op 800 ft

TAF: CYYQ 282006Z 2820/2918 06012KT P6SM FEW020 FEW260 FM290200 09012KT 1SM BR OVC005 FM291500 09012KT P6SM BKN008 RMK NXT FCST BY 290000Z

Waarnemingen en weersverwachtingen van meer dan 4000 vliegvelden (METAR en TAF).

De beschikbare stations zijn de gele en rode punten op de kaart.

Ga met uw muis naar het station om de naam te zien.

Klik dan om waarnemingen en weersverwachtingen te zien.

kaart wijzigen: klik op de groene knoppen met een zwart kruis om in te zoomen, op de groene knop met een streepje om uit te zoomen of op de groene pijlen voor aangrenzende kaarten.


METAR-TAF: